Time;durP1;ratioP1;P1;durP2;ratioP2;P2;SDS_P1;SDS_P2;PMS_P1;PMS_P2;Temp;Humidity;BMP_temperature;BMP_pressure;BME280_temperature;BME280_humidity;BME280_pressure;Samples;Min_cycle;Max_cycle;Signal;HPM_P1;HPM_P2
2021/12/20 00:00:24;;;;;;;33.80;6.07;;;7.20;99.90;;;;;;5075012;28;20041;-74
2021/12/20 00:02:52;;;;;;;29.13;4.75;;;7.20;99.90;;;;;;5076420;28;20047;-75
2021/12/20 00:05:21;;;;;;;27.13;5.55;;;7.20;99.90;;;;;;5074784;28;20416;-75
2021/12/20 00:07:47;;;;;;;31.20;5.28;;;7.10;99.90;;;;;;5075039;28;20504;-75
2021/12/20 00:10:14;;;;;;;31.40;4.72;;;7.10;99.90;;;;;;5076208;28;20075;-75
2021/12/20 00:12:41;;;;;;;30.40;4.75;;;7.10;99.90;;;;;;5074646;28;20408;-74
2021/12/20 00:15:07;;;;;;;36.67;6.30;;;7.10;99.90;;;;;;5058151;28;20412;-74
2021/12/20 00:17:33;;;;;;;35.80;5.18;;;7.10;99.90;;;;;;5074633;28;20045;-74
2021/12/20 00:19:58;;;;;;;30.25;5.70;;;7.10;99.90;;;;;;5076097;28;20038;-74
2021/12/20 00:22:24;;;;;;;34.58;5.07;;;7.10;99.90;;;;;;5074788;28;20047;-74
2021/12/20 00:24:50;;;;;;;32.78;5.35;;;7.10;99.90;;;;;;5074563;28;20039;-74
2021/12/20 00:27:19;;;;;;;31.95;5.50;;;7.10;99.90;;;;;;5074438;28;20048;-74
2021/12/20 00:29:49;;;;;;;28.85;4.85;;;7.00;99.90;;;;;;5074772;28;20129;-74
2021/12/20 00:32:16;;;;;;;29.80;5.38;;;7.00;99.90;;;;;;5074573;28;20040;-74
2021/12/20 00:34:42;;;;;;;34.22;4.93;;;7.00;99.90;;;;;;5074514;28;20117;-74
2021/12/20 00:42:42;;;;;;;26.92;4.93;;;7.00;99.90;;;;;;5075798;28;20390;-74
2021/12/20 00:45:09;;;;;;;23.55;4.68;;;6.90;99.90;;;;;;5074518;28;20032;-74
2021/12/20 00:47:35;;;;;;;24.75;5.50;;;7.00;99.90;;;;;;5075226;28;20173;-74
2021/12/20 00:50:01;;;;;;;33.05;5.63;;;7.00;99.90;;;;;;5074052;28;20492;-74
2021/12/20 00:52:26;;;;;;;25.42;4.68;;;7.00;99.90;;;;;;5074301;28;20048;-74
2021/12/20 00:54:52;;;;;;;34.60;5.22;;;7.00;99.90;;;;;;5074120;28;20064;-74
2021/12/20 00:57:18;;;;;;;32.05;5.47;;;7.00;99.90;;;;;;5074689;28;20235;-74
2021/12/20 00:59:43;;;;;;;25.55;5.40;;;7.00;99.90;;;;;;5075212;28;20032;-74
2021/12/20 01:02:09;;;;;;;27.73;5.72;;;7.00;99.90;;;;;;5073806;28;20037;-75
2021/12/20 01:04:34;;;;;;;30.02;4.68;;;7.00;99.90;;;;;;5073890;28;20060;-75
2021/12/20 01:07:00;;;;;;;25.73;4.07;;;7.00;99.90;;;;;;5073514;28;20044;-74
2021/12/20 01:09:26;;;;;;;32.75;4.65;;;7.00;99.90;;;;;;5075137;28;20111;-75
2021/12/20 01:11:53;;;;;;;31.45;4.93;;;7.10;99.90;;;;;;5074918;28;20052;-75
2021/12/20 01:14:25;;;;;;;24.85;4.45;;;7.10;99.90;;;;;;5074640;28;20132;-75
2021/12/20 01:16:51;;;;;;;29.85;5.25;;;7.10;99.90;;;;;;5075201;28;20117;-75
2021/12/20 01:19:17;;;;;;;29.80;5.03;;;7.10;99.90;;;;;;5075076;28;20378;-75
2021/12/20 01:21:43;;;;;;;29.90;5.13;;;7.10;99.90;;;;;;5072946;28;20044;-75
2021/12/20 01:24:09;;;;;;;30.88;5.20;;;7.00;99.90;;;;;;5073759;28;20062;-75
2021/12/20 01:26:34;;;;;;;29.73;4.55;;;7.00;99.90;;;;;;5071798;28;20386;-75
2021/12/20 01:29:00;;;;;;;32.58;5.18;;;7.00;99.90;;;;;;5055489;28;20128;-75
2021/12/20 01:31:26;;;;;;;27.17;5.25;;;6.90;99.90;;;;;;5072564;28;20032;-75
2021/12/20 01:33:52;;;;;;;29.15;4.80;;;6.90;99.90;;;;;;5072068;28;20554;-75
2021/12/20 01:36:18;;;;;;;36.53;5.03;;;6.90;99.90;;;;;;5071964;28;20072;-75
2021/12/20 01:38:43;;;;;;;26.00;4.57;;;6.90;99.90;;;;;;5072013;28;20040;-75
2021/12/20 01:41:10;;;;;;;21.83;4.18;;;6.80;99.90;;;;;;5071928;28;20036;-75
2021/12/20 01:43:37;;;;;;;32.55;5.63;;;6.80;99.90;;;;;;5071952;28;20112;-75
2021/12/20 01:46:04;;;;;;;28.75;4.45;;;6.80;99.90;;;;;;5072173;28;20549;-76
2021/12/20 01:48:30;;;;;;;29.88;4.70;;;6.80;99.90;;;;;;5072212;28;20070;-75
2021/12/20 01:53:36;;;;;;;26.05;5.22;;;6.80;99.90;;;;;;5071872;28;20040;-76
2021/12/20 01:56:04;;;;;;;22.13;5.00;;;6.80;99.90;;;;;;5071779;28;20054;-76
2021/12/20 01:58:30;;;;;;;29.17;4.30;;;6.80;99.90;;;;;;5072034;28;20101;-76
2021/12/20 02:01:03;;;;;;;26.80;3.95;;;6.80;99.90;;;;;;5071734;28;20040;-76
2021/12/20 02:03:30;;;;;;;25.25;3.70;;;6.80;99.90;;;;;;5072098;28;20044;-76
2021/12/20 02:05:59;;;;;;;22.60;4.05;;;6.80;99.90;;;;;;5071745;28;20033;-76
2021/12/20 02:08:28;;;;;;;28.27;5.05;;;6.80;99.90;;;;;;5071994;28;20036;-76
2021/12/20 02:10:57;;;;;;;27.85;4.45;;;6.80;99.90;;;;;;5071621;28;20047;-76
2021/12/20 02:13:25;;;;;;;29.30;4.55;;;6.70;99.90;;;;;;5071655;28;20041;-76
2021/12/20 02:15:51;;;;;;;25.58;4.25;;;6.70;99.90;;;;;;5071591;28;20041;-76
2021/12/20 02:18:17;;;;;;;29.75;4.57;;;6.80;99.90;;;;;;5071853;28;20028;-76
2021/12/20 02:20:43;;;;;;;19.52;3.60;;;6.80;99.90;;;;;;5071794;28;20378;-75
2021/12/20 02:23:09;;;;;;;23.98;3.47;;;6.80;99.90;;;;;;5071575;28;20039;-75
2021/12/20 02:25:35;;;;;;;20.63;3.70;;;6.80;99.90;;;;;;5071555;28;20037;-75
2021/12/20 02:28:08;;;;;;;24.02;3.65;;;6.80;99.90;;;;;;5071537;28;20123;-75
2021/12/20 02:38:33;;;;;;;19.95;3.42;;;6.80;99.90;;;;;;5072164;28;20049;-75
2021/12/20 02:41:10;;;;;;;27.95;4.50;;;6.80;99.90;;;;;;5058764;28;20051;-76
2021/12/20 02:43:40;;;;;;;22.85;3.05;;;6.80;99.90;;;;;;5075303;28;20040;-76
2021/12/20 02:48:56;;;;;;;18.25;3.50;;;6.80;99.90;;;;;;5075417;28;20047;-76
2021/12/20 02:51:26;;;;;;;20.05;3.42;;;6.80;99.90;;;;;;5075026;28;20051;-76
2021/12/20 02:53:52;;;;;;;25.80;2.83;;;6.70;99.90;;;;;;5075374;28;20086;-76
2021/12/20 02:56:19;;;;;;;17.38;3.15;;;6.70;99.90;;;;;;5074833;28;20120;-75
2021/12/20 02:58:44;;;;;;;18.00;3.00;;;6.70;99.90;;;;;;5074924;28;20473;-76
2021/12/20 03:01:11;;;;;;;21.25;3.45;;;6.70;99.90;;;;;;5074796;28;20161;-76
2021/12/20 03:03:37;;;;;;;14.40;2.38;;;6.70;99.90;;;;;;5074908;28;20038;-76
2021/12/20 03:06:20;;;;;;;19.67;3.33;;;6.70;99.90;;;;;;5074818;28;20381;-76
2021/12/20 03:08:48;;;;;;;15.73;2.63;;;6.70;99.90;;;;;;5075090;28;20044;-76
2021/12/20 03:11:14;;;;;;;16.17;2.72;;;6.70;99.90;;;;;;5057927;28;20040;-76
2021/12/20 03:13:41;;;;;;;20.20;2.97;;;6.70;99.90;;;;;;5058068;28;20044;-76
2021/12/20 03:16:07;;;;;;;15.10;2.58;;;6.70;99.90;;;;;;5074539;28;20102;-76
2021/12/20 03:18:32;;;;;;;16.33;2.63;;;6.60;99.90;;;;;;5074810;28;20075;-76
2021/12/20 03:20:58;;;;;;;26.40;3.67;;;6.60;99.90;;;;;;5074497;28;20098;-76
2021/12/20 03:23:24;;;;;;;19.25;3.00;;;6.60;99.90;;;;;;5074491;28;20040;-76
2021/12/20 03:25:49;;;;;;;14.63;3.28;;;6.50;99.90;;;;;;5074461;28;20029;-76
2021/12/20 03:28:15;;;;;;;15.65;3.28;;;6.50;99.90;;;;;;5074679;28;20044;-76
2021/12/20 03:30:41;;;;;;;15.57;3.60;;;6.50;99.90;;;;;;5074328;28;20523;-76
2021/12/20 03:33:06;;;;;;;17.65;3.35;;;6.50;99.90;;;;;;5074343;28;20040;-76
2021/12/20 03:35:32;;;;;;;17.05;2.88;;;6.40;99.90;;;;;;5057639;28;20044;-76
2021/12/20 03:37:58;;;;;;;15.15;2.60;;;6.40;99.90;;;;;;5074187;28;20040;-76
2021/12/20 03:40:23;;;;;;;17.70;2.60;;;6.40;99.90;;;;;;5074131;28;20055;-76
2021/12/20 03:42:49;;;;;;;22.70;3.28;;;6.40;99.90;;;;;;5057434;28;20037;-76
2021/12/20 03:45:15;;;;;;;16.90;2.78;;;6.40;99.90;;;;;;5057723;28;20032;-76
2021/12/20 03:47:42;;;;;;;14.50;2.40;;;6.30;99.90;;;;;;5074077;28;20067;-76
2021/12/20 03:50:10;;;;;;;18.42;2.50;;;6.30;99.90;;;;;;5073853;28;20443;-75
2021/12/20 03:52:38;;;;;;;16.75;2.53;;;6.30;99.90;;;;;;5073983;28;20040;-76
2021/12/20 03:55:06;;;;;;;13.52;2.30;;;6.30;99.90;;;;;;5073910;28;20040;-76
2021/12/20 03:57:31;;;;;;;15.15;2.60;;;6.30;99.90;;;;;;5073653;28;20047;-75
2021/12/20 03:59:57;;;;;;;12.43;2.25;;;6.30;99.90;;;;;;5057056;28;20037;-75
2021/12/20 04:02:23;;;;;;;14.07;2.10;;;6.20;99.90;;;;;;5057130;28;20041;-75
2021/12/20 04:04:49;;;;;;;13.13;2.45;;;6.20;99.90;;;;;;5074032;28;20036;-75
2021/12/20 04:07:15;;;;;;;12.75;2.10;;;6.20;99.90;;;;;;5073930;28;20089;-75
2021/12/20 04:09:40;;;;;;;13.90;2.53;;;6.10;99.90;;;;;;5073672;28;20062;-75
2021/12/20 04:12:06;;;;;;;13.30;2.15;;;6.00;99.90;;;;;;5057115;28;20098;-75
2021/12/20 04:14:32;;;;;;;14.10;2.25;;;6.00;99.90;;;;;;5073821;28;20054;-75
2021/12/20 04:16:57;;;;;;;11.13;2.03;;;5.90;99.90;;;;;;5073598;28;20377;-75
2021/12/20 04:19:23;;;;;;;9.95;1.98;;;5.90;99.90;;;;;;5073447;28;20389;-75
2021/12/20 04:21:48;;;;;;;10.60;2.10;;;5.80;99.90;;;;;;5056676;28;20040;-75
2021/12/20 04:24:14;;;;;;;14.63;2.55;;;5.80;99.90;;;;;;5056722;28;20071;-75
2021/12/20 04:26:40;;;;;;;15.05;2.13;;;5.80;99.90;;;;;;5073338;28;20095;-75
2021/12/20 04:29:06;;;;;;;13.80;2.17;;;5.80;99.90;;;;;;5073222;28;20044;-75
2021/12/20 04:31:33;;;;;;;10.68;2.15;;;5.80;99.90;;;;;;5057082;28;20044;-75
2021/12/20 04:33:59;;;;;;;16.92;2.95;;;5.70;99.90;;;;;;5073150;28;20049;-75
2021/12/20 04:36:24;;;;;;;12.50;2.10;;;5.70;99.90;;;;;;5056431;28;20051;-75
2021/12/20 04:38:50;;;;;;;10.63;2.03;;;5.70;99.90;;;;;;5073016;28;20036;-75
2021/12/20 04:41:15;;;;;;;17.40;3.45;;;5.70;99.90;;;;;;5073187;28;20032;-75
2021/12/20 04:43:41;;;;;;;16.40;3.55;;;5.70;99.90;;;;;;5072962;28;20037;-75
2021/12/20 04:46:07;;;;;;;12.90;2.55;;;5.60;99.90;;;;;;5072914;28;20113;-75
2021/12/20 04:48:32;;;;;;;13.40;3.08;;;5.60;99.90;;;;;;5073099;28;20078;-75
2021/12/20 04:50:58;;;;;;;11.98;3.10;;;5.60;99.90;;;;;;5072761;28;20485;-75
2021/12/20 04:53:24;;;;;;;16.60;3.15;;;5.60;99.90;;;;;;5072955;28;20040;-75
2021/12/20 04:55:49;;;;;;;14.40;3.03;;;5.60;99.90;;;;;;5072885;28;20072;-75
2021/12/20 04:58:15;;;;;;;16.52;2.97;;;5.70;99.90;;;;;;5072638;28;20416;-75
2021/12/20 05:00:43;;;;;;;14.90;3.38;;;5.60;99.90;;;;;;5072670;28;20041;-75
2021/12/20 05:03:09;;;;;;;10.38;2.65;;;5.60;99.90;;;;;;5072452;28;20047;-75
2021/12/20 05:05:35;;;;;;;14.40;2.63;;;5.50;99.90;;;;;;5072540;28;20404;-75
2021/12/20 05:08:03;;;;;;;15.65;3.38;;;5.50;99.90;;;;;;5072475;28;20047;-75
2021/12/20 05:10:34;;;;;;;16.98;3.67;;;5.40;99.90;;;;;;5072371;28;20432;-75
2021/12/20 05:13:05;;;;;;;18.13;2.70;;;5.40;99.90;;;;;;5072484;28;20051;-75
2021/12/20 05:15:32;;;;;;;15.68;4.15;;;5.40;99.90;;;;;;5072350;28;20040;-75
2021/12/20 05:17:58;;;;;;;19.65;3.80;;;5.30;99.90;;;;;;5072264;28;20119;-75
2021/12/20 05:20:25;;;;;;;16.95;4.63;;;5.30;99.90;;;;;;5072207;28;20044;-75
2021/12/20 05:22:51;;;;;;;14.68;4.75;;;5.20;99.90;;;;;;5072299;28;20119;-75
2021/12/20 05:25:16;;;;;;;10.32;3.10;;;5.20;99.90;;;;;;5055845;28;20067;-75
2021/12/20 05:27:42;;;;;;;14.30;3.80;;;5.10;99.90;;;;;;5072176;28;20526;-75
2021/12/20 05:30:10;;;;;;;13.05;3.45;;;5.10;99.90;;;;;;5055442;28;20036;-75
2021/12/20 05:32:36;;;;;;;17.08;3.88;;;5.00;99.90;;;;;;5055856;28;20396;-75
2021/12/20 05:35:03;;;;;;;18.75;2.90;;;4.90;99.90;;;;;;5072084;28;20040;-75
2021/12/20 05:37:29;;;;;;;26.33;10.60;;;4.90;99.90;;;;;;5072087;28;20119;-75
2021/12/20 05:39:55;;;;;;;44.33;27.90;;;4.90;99.90;;;;;;5071898;28;20087;-75
2021/12/20 05:42:20;;;;;;;37.22;20.42;;;4.80;99.90;;;;;;5072073;28;20043;-75
2021/12/20 05:44:46;;;;;;;22.67;10.02;;;4.70;99.90;;;;;;5071984;28;20071;-75
2021/12/20 05:47:11;;;;;;;25.63;10.85;;;4.70;99.90;;;;;;5072201;28;20072;-75
2021/12/20 05:49:37;;;;;;;20.55;7.30;;;4.70;99.90;;;;;;5055444;28;20090;-75
2021/12/20 05:52:03;;;;;;;15.73;4.10;;;4.70;99.90;;;;;;5071835;28;20477;-75
2021/12/20 05:54:30;;;;;;;15.48;4.22;;;4.60;99.90;;;;;;5055223;28;20162;-75
2021/12/20 05:56:56;;;;;;;13.15;3.47;;;4.60;99.90;;;;;;5071695;28;20492;-75
2021/12/20 05:59:22;;;;;;;10.45;2.22;;;4.50;99.90;;;;;;5071844;28;20037;-75
2021/12/20 06:01:48;;;;;;;15.75;2.90;;;4.50;99.90;;;;;;5071720;28;20033;-75
2021/12/20 06:04:13;;;;;;;17.40;3.00;;;4.40;99.90;;;;;;5072046;28;20413;-75
2021/12/20 06:06:39;;;;;;;16.08;3.78;;;4.40;99.90;;;;;;5071787;28;20485;-75
2021/12/20 06:09:05;;;;;;;24.50;5.68;;;4.40;99.90;;;;;;5071747;28;20115;-75
2021/12/20 06:11:30;;;;;;;31.45;9.23;;;4.30;99.90;;;;;;5071920;28;20040;-75
2021/12/20 06:13:58;;;;;;;33.90;10.10;;;4.20;99.90;;;;;;5074769;28;20557;-75
2021/12/20 06:16:24;;;;;;;21.88;7.38;;;4.20;99.90;;;;;;5075716;28;20045;-75
2021/12/20 06:18:51;;;;;;;33.85;13.90;;;4.10;99.90;;;;;;5059299;28;20051;-75
2021/12/20 06:21:18;;;;;;;42.60;19.88;;;4.10;99.90;;;;;;5075667;28;20528;-75
2021/12/20 06:23:43;;;;;;;39.72;17.95;;;4.10;99.90;;;;;;5075903;28;20046;-75
2021/12/20 06:26:09;;;;;;;24.50;9.57;;;4.10;99.90;;;;;;5075628;28;20386;-75
2021/12/20 06:28:35;;;;;;;26.23;10.35;;;4.10;99.90;;;;;;5075585;28;20032;-75
2021/12/20 06:31:01;;;;;;;18.63;7.35;;;4.10;99.90;;;;;;5058762;28;20066;-75
2021/12/20 06:33:27;;;;;;;22.38;4.75;;;4.00;99.90;;;;;;5075748;28;20033;-75
2021/12/20 06:35:53;;;;;;;13.85;3.80;;;3.90;99.90;;;;;;5075413;28;20492;-75
2021/12/20 06:38:21;;;;;;;12.30;3.60;;;3.90;99.90;;;;;;5075283;28;20079;-75
2021/12/20 06:40:48;;;;;;;15.70;3.53;;;3.80;99.90;;;;;;5075547;28;20047;-75
2021/12/20 06:43:14;;;;;;;14.45;3.55;;;3.80;99.90;;;;;;5075285;28;20098;-75
2021/12/20 06:45:40;;;;;;;12.95;3.20;;;3.80;99.90;;;;;;5075248;28;20032;-75
2021/12/20 06:48:06;;;;;;;16.55;3.10;;;3.70;99.90;;;;;;5075189;28;20044;-75
2021/12/20 06:50:32;;;;;;;13.68;2.85;;;3.70;99.90;;;;;;5058387;28;20040;-75
2021/12/20 06:52:58;;;;;;;12.85;3.10;;;3.70;99.90;;;;;;5075066;28;20037;-75
2021/12/20 06:55:24;;;;;;;17.85;3.42;;;3.70;99.90;;;;;;5058169;28;20045;-75
2021/12/20 06:57:50;;;;;;;16.65;3.00;;;3.70;99.90;;;;;;5058329;28;20044;-75
2021/12/20 07:00:17;;;;;;;20.23;4.47;;;3.70;99.90;;;;;;5074903;28;20408;-75
2021/12/20 07:02:42;;;;;;;19.92;5.85;;;3.80;99.90;;;;;;5075176;28;20123;-75
2021/12/20 07:05:09;;;;;;;16.83;6.47;;;3.80;99.90;;;;;;5074882;28;20456;-75
2021/12/20 07:07:35;;;;;;;21.92;6.57;;;3.70;99.90;;;;;;5074842;28;20044;-75
2021/12/20 07:10:03;;;;;;;18.75;5.93;;;3.70;99.90;;;;;;5074932;28;20042;-75
2021/12/20 07:12:29;;;;;;;20.45;5.57;;;3.70;99.90;;;;;;5074727;28;20072;-75
2021/12/20 07:14:55;;;;;;;18.00;5.70;;;3.70;99.90;;;;;;5074733;28;20036;-75
2021/12/20 07:17:21;;;;;;;17.30;5.35;;;3.60;99.90;;;;;;5057929;28;20032;-76
2021/12/20 07:19:47;;;;;;;14.10;4.18;;;3.60;99.90;;;;;;5074590;28;20493;-75
2021/12/20 07:22:12;;;;;;;16.08;3.05;;;3.40;99.90;;;;;;5075931;28;20457;-74
2021/12/20 07:24:38;;;;;;;18.02;4.95;;;3.40;99.90;;;;;;5075244;28;20076;-74
2021/12/20 07:27:05;;;;;;;19.98;5.93;;;3.40;99.90;;;;;;5075349;28;20450;-74
2021/12/20 07:29:31;;;;;;;20.52;4.95;;;3.30;99.90;;;;;;5075608;28;20056;-74
2021/12/20 07:31:56;;;;;;;13.93;4.60;;;3.30;99.90;;;;;;5074984;28;20098;-74
2021/12/20 07:34:22;;;;;;;21.52;5.68;;;3.30;99.90;;;;;;5075382;28;20397;-73
2021/12/20 07:36:48;;;;;;;18.08;5.15;;;3.20;99.90;;;;;;5074960;28;20516;-73
2021/12/20 07:39:13;;;;;;;16.92;5.00;;;3.20;99.90;;;;;;5076367;28;20068;-74
2021/12/20 07:41:41;;;;;;;14.35;4.57;;;3.10;99.90;;;;;;5075287;28;20565;-74
2021/12/20 07:44:06;;;;;;;17.15;5.32;;;3.10;99.90;;;;;;5076613;28;20044;-74
2021/12/20 07:46:32;;;;;;;15.10;4.60;;;3.10;99.90;;;;;;5074493;28;20044;-73
2021/12/20 07:48:58;;;;;;;16.05;4.57;;;3.10;99.90;;;;;;5075611;28;20060;-74
2021/12/20 07:51:24;;;;;;;17.70;5.80;;;3.10;99.90;;;;;;5075944;28;20052;-74
2021/12/20 07:53:49;;;;;;;22.90;6.63;;;3.10;99.90;;;;;;5075886;28;20036;-74
2021/12/20 07:56:17;;;;;;;14.93;6.78;;;3.10;99.90;;;;;;5075507;28;20031;-73
2021/12/20 07:58:43;;;;;;;17.10;6.28;;;3.10;99.90;;;;;;5074343;28;20116;-73
2021/12/20 08:01:08;;;;;;;22.90;5.95;;;3.00;99.90;;;;;;5074174;28;20461;-74
2021/12/20 08:03:35;;;;;;;16.73;5.30;;;3.10;99.90;;;;;;5075226;28;20039;-74
2021/12/20 08:06:01;;;;;;;18.73;5.30;;;3.00;99.90;;;;;;5058116;28;20374;-74
2021/12/20 08:08:26;;;;;;;17.67;4.85;;;3.00;99.90;;;;;;5074827;28;20040;-74
2021/12/20 08:10:54;;;;;;;15.20;4.88;;;2.90;99.90;;;;;;5074402;28;20036;-74
2021/12/20 08:13:19;;;;;;;16.70;5.10;;;2.90;99.90;;;;;;5074648;28;20037;-74
2021/12/20 08:15:45;;;;;;;17.08;4.47;;;2.90;99.90;;;;;;5074515;28;20558;-74
2021/12/20 08:18:11;;;;;;;19.02;4.75;;;2.90;99.90;;;;;;5074223;28;20044;-74
2021/12/20 08:20:36;;;;;;;11.15;4.30;;;2.90;99.90;;;;;;5075744;28;20048;-75
2021/12/20 08:23:03;;;;;;;15.52;4.95;;;2.90;99.90;;;;;;5075167;28;20041;-75
2021/12/20 08:25:29;;;;;;;18.27;5.05;;;2.90;99.90;;;;;;5075641;28;20044;-75
2021/12/20 08:27:55;;;;;;;18.60;5.30;;;2.90;99.90;;;;;;5075383;28;20044;-74
2021/12/20 08:30:22;;;;;;;15.20;4.93;;;2.90;99.90;;;;;;5073998;28;20040;-74
2021/12/20 08:32:48;;;;;;;13.30;5.25;;;3.00;99.90;;;;;;5075129;28;20040;-74
2021/12/20 08:35:14;;;;;;;14.88;4.60;;;3.00;99.90;;;;;;5057977;28;20524;-74
2021/12/20 08:37:41;;;;;;;13.07;4.30;;;3.00;99.90;;;;;;5073227;28;20048;-74
2021/12/20 08:40:12;;;;;;;12.73;4.03;;;3.00;99.90;;;;;;5074427;28;20040;-75
2021/12/20 08:42:39;;;;;;;16.35;4.13;;;3.00;99.90;;;;;;5074625;28;20036;-74
2021/12/20 08:45:06;;;;;;;14.15;3.50;;;3.00;99.90;;;;;;5057443;28;20078;-74
2021/12/20 08:47:32;;;;;;;13.05;2.75;;;3.00;99.90;;;;;;5074208;28;20082;-74
2021/12/20 08:50:00;;;;;;;15.23;3.22;;;3.00;99.90;;;;;;5057096;28;20123;-75
2021/12/20 08:52:26;;;;;;;11.15;2.45;;;3.10;99.90;;;;;;5074262;28;20452;-73
2021/12/20 08:54:52;;;;;;;7.40;2.35;;;3.10;99.90;;;;;;5058170;28;20545;-74
2021/12/20 08:57:18;;;;;;;10.23;2.65;;;3.10;99.90;;;;;;5073770;28;20076;-74
2021/12/20 08:59:43;;;;;;;11.98;2.55;;;3.10;99.90;;;;;;5074178;28;20040;-74
2021/12/20 09:02:10;;;;;;;10.80;2.72;;;3.20;99.90;;;;;;5073676;28;20075;-74
2021/12/20 09:04:36;;;;;;;13.07;2.75;;;3.10;99.90;;;;;;5073921;28;20037;-74
2021/12/20 09:07:02;;;;;;;12.88;2.75;;;3.20;99.90;;;;;;5057422;28;20051;-74
2021/12/20 09:09:29;;;;;;;15.45;3.05;;;3.20;99.90;;;;;;5074049;28;20040;-74
2021/12/20 09:11:54;;;;;;;15.15;2.42;;;3.20;99.90;;;;;;5057030;28;20047;-74
2021/12/20 09:14:20;;;;;;;13.32;2.38;;;3.20;99.90;;;;;;5057028;28;20036;-74
2021/12/20 09:16:46;;;;;;;12.95;2.42;;;3.30;99.90;;;;;;5056724;28;20129;-74
2021/12/20 09:19:11;;;;;;;12.55;2.05;;;3.30;99.90;;;;;;5056269;28;20068;-73
2021/12/20 09:21:37;;;;;;;9.73;2.35;;;3.40;99.90;;;;;;5055966;28;20068;-74
2021/12/20 09:24:04;;;;;;;14.30;3.15;;;3.40;99.90;;;;;;5056154;28;20127;-73
2021/12/20 09:26:30;;;;;;;14.63;2.78;;;3.40;99.90;;;;;;5055811;28;20040;-74
2021/12/20 09:28:56;;;;;;;24.33;3.78;;;3.50;99.90;;;;;;5072173;28;20446;-75
2021/12/20 09:31:22;;;;;;;17.70;3.45;;;3.50;99.90;;;;;;5072098;28;20135;-75
2021/12/20 09:33:47;;;;;;;23.48;3.58;;;3.50;99.90;;;;;;5072106;28;20040;-75
2021/12/20 09:36:13;;;;;;;18.08;3.60;;;3.60;99.90;;;;;;5072034;28;20047;-75
2021/12/20 09:38:38;;;;;;;18.02;2.90;;;3.60;99.90;;;;;;5072088;28;20409;-75
2021/12/20 09:43:35;;;;;;;18.95;3.10;;;3.70;99.90;;;;;;5072141;28;20044;-74
2021/12/20 09:46:01;;;;;;;16.17;3.20;;;3.80;99.90;;;;;;5072409;28;20496;-75
2021/12/20 09:48:26;;;;;;;19.92;3.13;;;3.80;99.90;;;;;;5071885;28;20044;-75
2021/12/20 09:50:52;;;;;;;24.45;3.47;;;3.90;99.90;;;;;;5055412;28;20220;-74
2021/12/20 09:53:17;;;;;;;19.48;3.40;;;3.90;99.90;;;;;;5071909;28;20500;-75
2021/12/20 09:55:46;;;;;;;20.88;4.32;;;4.00;99.90;;;;;;5071644;28;20047;-75
2021/12/20 09:58:12;;;;;;;31.20;5.32;;;4.00;99.90;;;;;;5072171;28;20066;-75
2021/12/20 10:00:38;;;;;;;31.20;4.57;;;4.10;99.90;;;;;;5055321;28;20044;-74
2021/12/20 10:03:04;;;;;;;32.35;5.40;;;4.20;99.90;;;;;;5071985;28;20404;-75
2021/12/20 10:05:32;;;;;;;36.50;5.82;;;4.30;99.90;;;;;;5071755;28;20033;-72
2021/12/20 10:08:01;;;;;;;21.20;4.80;;;4.30;99.90;;;;;;5072005;28;20052;-75
2021/12/20 10:10:42;;;;;;;28.50;5.18;;;4.40;99.90;;;;;;5071914;28;20052;-74
2021/12/20 10:13:29;;;;;;;28.85;4.57;;;4.50;99.90;;;;;;5055039;28;20040;-75
2021/12/20 10:15:56;;;;;;;31.15;5.32;;;4.60;99.90;;;;;;5071695;28;20040;-74
2021/12/20 10:18:23;;;;;;;28.85;5.88;;;4.60;99.90;;;;;;5071531;28;20098;-75
2021/12/20 10:20:57;;;;;;;27.77;5.55;;;4.70;99.90;;;;;;5071530;28;20082;-74
2021/12/20 10:23:25;;;;;;;25.35;5.40;;;4.70;99.90;;;;;;5071652;28;20082;-75
2021/12/20 10:25:57;;;;;;;23.00;4.65;;;4.80;99.90;;;;;;5055135;28;20095;-75
2021/12/20 10:28:25;;;;;;;29.08;5.60;;;4.90;99.90;;;;;;5071848;28;20037;-75
2021/12/20 10:30:57;;;;;;;30.65;4.70;;;4.90;99.90;;;;;;5071477;28;20090;-75
2021/12/20 10:33:24;;;;;;;19.65;4.30;;;5.00;99.90;;;;;;5071561;28;20040;-75
2021/12/20 10:35:53;;;;;;;26.10;4.82;;;5.00;99.90;;;;;;5071746;28;20052;-75
2021/12/20 10:38:21;;;;;;;22.80;4.63;;;5.10;99.90;;;;;;5071454;28;20045;-75
2021/12/20 10:41:03;;;;;;;15.80;4.18;;;5.20;99.90;;;;;;5054959;28;20037;-75
2021/12/20 10:43:52;;;;;;;25.65;4.45;;;5.30;99.90;;;;;;5071749;28;20484;-75
2021/12/20 10:46:23;;;;;;;27.88;4.75;;;5.30;99.90;;;;;;5071677;28;20085;-75
2021/12/20 10:48:52;;;;;;;23.98;3.70;;;5.30;99.90;;;;;;5071299;28;20185;-75
2021/12/20 10:51:30;;;;;;;19.60;4.07;;;5.40;99.90;;;;;;5071541;28;20036;-75
2021/12/20 10:54:01;;;;;;;17.92;4.22;;;5.50;99.90;;;;;;5071521;28;20127;-75
2021/12/20 10:56:30;;;;;;;22.10;4.10;;;5.60;99.90;;;;;;5054386;28;20373;-75
2021/12/20 10:58:57;;;;;;;21.45;3.97;;;5.60;99.90;;;;;;5071219;28;20032;-75
2021/12/20 11:02:03;;;;;;;16.98;3.58;;;5.70;99.90;;;;;;5074517;28;20046;-74
2021/12/20 11:04:27;;;;;;;14.32;3.25;;;5.80;99.90;;;;;;5074732;28;20523;-74
2021/12/20 11:09:04;;;;;;;15.13;3.67;;;5.90;99.90;;;;;;5074961;28;20052;-74
2021/12/20 11:09:46;;;;;;;15.95;3.90;;;6.00;99.90;;;;;;5074982;28;20040;-75
2021/12/20 11:12:21;;;;;;;15.43;3.40;;;6.10;99.90;;;;;;5074962;28;20048;-75
2021/12/20 11:14:49;;;;;;;13.40;3.15;;;6.10;99.70;;;;;;5074754;28;20154;-75
2021/12/20 11:17:17;;;;;;;15.02;3.13;;;6.30;99.10;;;;;;5074787;28;20036;-74
2021/12/20 11:19:47;;;;;;;10.82;2.47;;;6.40;97.90;;;;;;5074588;28;20492;-74
2021/12/20 11:22:22;;;;;;;10.95;2.67;;;7.10;97.10;;;;;;5075105;28;20036;-74
2021/12/20 11:24:55;;;;;;;10.32;3.03;;;8.10;95.00;;;;;;5074861;28;20032;-75
2021/12/20 11:27:32;;;;;;;6.53;2.30;;;9.20;91.50;;;;;;5074558;28;20041;-75
2021/12/20 11:30:01;;;;;;;9.98;2.25;;;10.40;87.10;;;;;;5074673;28;20106;-75
2021/12/20 11:32:27;;;;;;;9.40;2.00;;;11.20;82.70;;;;;;5074394;28;20045;-75
2021/12/20 11:34:54;;;;;;;6.55;1.67;;;11.60;77.10;;;;;;5057692;28;20048;-75
2021/12/20 11:37:23;;;;;;;6.97;1.67;;;12.20;72.10;;;;;;5074395;28;20040;-75
2021/12/20 11:39:50;;;;;;;9.27;1.98;;;13.00;69.10;;;;;;5074266;28;20036;-75
2021/12/20 11:42:17;;;;;;;7.35;1.90;;;13.30;68.10;;;;;;5074168;28;20032;-76
2021/12/20 11:44:44;;;;;;;7.57;1.80;;;13.20;67.50;;;;;;5074172;28;20068;-76
2021/12/20 11:47:25;;;;;;;6.78;1.77;;;13.10;66.50;;;;;;5074397;28;20044;-76
2021/12/20 11:49:59;;;;;;;6.25;1.27;;;12.80;62.80;;;;;;5074331;28;20040;-76
2021/12/20 11:52:33;;;;;;;6.65;1.30;;;13.00;63.60;;;;;;5074264;28;20036;-76
2021/12/20 11:54:59;;;;;;;6.45;1.65;;;13.00;62.30;;;;;;5074065;28;20086;-75
2021/12/20 11:57:28;;;;;;;8.18;1.63;;;12.60;62.90;;;;;;5057113;28;20043;-73
2021/12/20 11:59:56;;;;;;;7.00;1.77;;;12.30;62.90;;;;;;5057229;28;20040;-73
2021/12/20 12:02:29;;;;;;;7.45;2.00;;;12.40;63.00;;;;;;5073817;28;20497;-73
2021/12/20 12:05:09;;;;;;;6.03;1.55;;;12.60;61.20;;;;;;5073855;28;20055;-73
2021/12/20 12:07:38;;;;;;;4.57;1.40;;;12.70;59.80;;;;;;5074916;28;20115;-73
2021/12/20 12:10:17;;;;;;;4.97;1.38;;;13.00;61.20;;;;;;5073485;28;20131;-73
2021/12/20 12:12:46;;;;;;;4.97;1.02;;;13.60;57.40;;;;;;5073570;28;20048;-73
2021/12/20 12:15:32;;;;;;;6.22;1.13;;;14.20;57.10;;;;;;5073577;28;20504;-73
2021/12/20 12:18:04;;;;;;;7.10;1.10;;;14.50;54.90;;;;;;5073610;28;20037;-73
2021/12/20 12:20:49;;;;;;;7.00;1.30;;;14.80;54.20;;;;;;5073383;28;20588;-73
2021/12/20 12:23:19;;;;;;;5.20;1.02;;;14.90;52.50;;;;;;5073469;28;20123;-73
2021/12/20 12:25:56;;;;;;;6.63;1.20;;;15.00;52.90;;;;;;5073654;28;20150;-73
2021/12/20 12:28:26;;;;;;;3.85;0.90;;;15.50;50.50;;;;;;5073456;28;20076;-73
2021/12/20 12:31:06;;;;;;;3.50;1.00;;;15.80;48.50;;;;;;5073280;28;20070;-73
2021/12/20 12:33:39;;;;;;;3.00;1.02;;;15.90;48.90;;;;;;5056601;28;20412;-73
2021/12/20 12:36:28;;;;;;;3.55;1.02;;;16.40;49.80;;;;;;5073186;28;20107;-73
2021/12/20 12:38:57;;;;;;;5.47;0.98;;;17.20;47.30;;;;;;5073393;28;20040;-74
2021/12/20 12:41:26;;;;;;;5.20;1.10;;;18.10;45.90;;;;;;5073060;28;20083;-73
2021/12/20 12:44:08;;;;;;;5.65;1.02;;;18.90;45.30;;;;;;5073029;28;20082;-73
2021/12/20 12:46:37;;;;;;;4.28;0.98;;;19.20;44.30;;;;;;5073047;28;20058;-73
2021/12/20 12:49:21;;;;;;;4.28;0.85;;;19.20;42.70;;;;;;5072952;28;20086;-73
2021/12/20 12:51:48;;;;;;;4.00;1.23;;;18.90;39.70;;;;;;5073390;28;20052;-73
2021/12/20 12:54:32;;;;;;;6.88;1.20;;;18.60;43.10;;;;;;5072842;28;20086;-73
2021/12/20 12:57:10;;;;;;;3.28;0.90;;;18.10;40.50;;;;;;5072720;28;20431;-73
2021/12/20 12:59:49;;;;;;;4.15;0.88;;;17.60;41.40;;;;;;5072756;28;20041;-73
2021/12/20 13:02:21;;;;;;;3.92;0.60;;;17.40;41.80;;;;;;5055986;28;20047;-73
2021/12/20 13:05:07;;;;;;;4.80;0.80;;;17.20;42.50;;;;;;5072741;28;20080;-73
2021/12/20 13:07:45;;;;;;;3.38;0.80;;;16.90;41.90;;;;;;5072789;28;20082;-73
2021/12/20 13:10:14;;;;;;;3.58;0.47;;;16.40;42.40;;;;;;5055719;28;20040;-73